This is the latest recevied weather packets stored in our database for station/object IW2NTF-3. If no packets are shown the sender has not sent any weather packets the latest 1 day(s).
| Time | Temp. | Humidity | Pressure | Rain* | Wind** | Luminosity | Snow |
|---|---|---|---|---|---|---|---|
| 1778058723 | 15.56° C | 88% | 1007.8 hPa | 0.76 mm | - | 603 W/m² | - |
| 1778058543 | 15.56° C | 89% | 1007.6 hPa | 0.76 mm | - | 898 W/m² | - |
| 1778058423 | 15° C | 89% | 1007.6 hPa | 0.76 mm | - | 970 W/m² | - |
| 1778058243 | 15° C | 89% | 1007.7 hPa | 1.02 mm | - | 413 W/m² | - |
| 1778058183 | 15° C | 89% | 1007.7 hPa | 1.02 mm | - | 413 W/m² | - |
| 1778057523 | 15° C | 90% | 1007.8 hPa | 1.52 mm | - | 577 W/m² | - |
| 1778057284 | 14.44° C | 90% | 1007.7 hPa | 1.52 mm | - | 418 W/m² | - |
| 1778056263 | 13.89° C | 90% | 1006.9 hPa | 2.29 mm | - | 153 W/m² | - |
| 1778055783 | 13.89° C | 90% | 1006.8 hPa | 2.29 mm | - | 88 W/m² | - |
| 1778055483 | 13.89° C | 89% | 1007.2 hPa | 2.29 mm | - | 53 W/m² | - |
| 1778053923 | 13.89° C | 89% | 1007.9 hPa | 1.27 mm | - | 42 W/m² | - |
| 1778053563 | 13.89° C | 89% | 1008.2 hPa | 0.76 mm | - | 33 W/m² | - |
| 1778053263 | 13.89° C | 89% | 1008.3 hPa | 0.51 mm | - | 32 W/m² | - |
| 1778053143 | 13.89° C | 89% | 1008.3 hPa | 0.51 mm | - | 35 W/m² | - |
| 1778053083 | 13.89° C | 89% | 1008.3 hPa | 0.51 mm | - | 32 W/m² | - |
| 1778053023 | 13.89° C | 89% | 1008.3 hPa | 0.51 mm | - | 30 W/m² | - |
| 1778052963 | 13.89° C | 89% | 1008.4 hPa | 0.51 mm | - | 32 W/m² | - |
| 1778052843 | 13.89° C | 89% | 1008.5 hPa | 0.51 mm | - | 23 W/m² | - |
| 1778052304 | 13.89° C | 90% | 1008.4 hPa | 0 mm | - | 23 W/m² | - |
| 1778052183 | 13.89° C | 90% | 1008.2 hPa | 0 mm | - | 21 W/m² | - |
| 1778051583 | 13.89° C | 90% | 1008.2 hPa | 0 mm | - | 33 W/m² | - |
| 1778051523 | 13.89° C | 90% | 1008.2 hPa | 0 mm | - | 32 W/m² | - |
| 1778051283 | 13.89° C | 90% | 1008.3 hPa | 0 mm | - | 26 W/m² | - |
| 1778051223 | 13.89° C | 90% | 1008.2 hPa | 0 mm | - | 30 W/m² | - |
| 1778051163 | 13.89° C | 90% | 1008.2 hPa | 0 mm | - | 30 W/m² | - |
* Rain latest hour (hover to see other rain measurements)
** Current wind speed in m/s (hover to see current wind gust speed)